McGill, Nevada
Current Conditions -  °F | °C
As of 7:53 AM on Sunday 25 Jan 2015 (Local Time) from KELY Reporting Station
Clear Clear  
Wind Chill: -4°   Ceiling: Unl
Heat Index: -4°   Visibility: 10mi
Dew Point: -6°   Wind: 3mph
Humidity: 88%   Direction: 180°S
Pressure: 30.47"   Gusts: NA
Location:  39.4°N, 114.78°W
Report Text: KELY 251553Z AUTO 18003KT 10SM CLR M04/M06 A3047 RMK AO2 SLP328 T10391056
Loading
Personal Weather Stations






























Interactive Weather Map New forecast layout! Learn more

10-Day Weather Forecast

Advertisements
Track Severe Weather on mobile